Weather History for Keokuk, IA

Change the Weather History Date:

Friday, February 1, 2013

  Actual Average Record
Temperature  
Mean Temperature 12 °F -  
Max Temperature 24 °F 39 °F 72 °F (1989)
Min Temperature 1 °F 19 °F -12 °F (1979)
Degree Days  
Heating Degree Days 52    
Moisture  
Dew Point 2 °F    
Average Humidity 63    
Maximum Humidity 80    
Minimum Humidity 53    
Precipitation  
Precipitation 0.00 in - - ()
Sea Level Pressure  
Sea Level Pressure 30.33 in    
Wind  
Wind Speed 10 mph (WSW)    
Max Wind Speed 16 mph    
Max Gust Speed 22 mph    
Visibility 10 miles    
Events      
Averages and records for this station are not official NWS values.
T = Trace of Precipitation, MM = Missing Value Source: NWS Daily Summary

Daily Weather History Graph

Daily Weather History Graph

Search for Another Location

Airport:

Trip Planner

Search our weather history database for the weather conditions in past years. The results will help you decide how hot, cold, wet, or windy it might be!

Date:

Astronomy

Feb. 01, 2013 Rise Set
Actual Time 7:14 AM CST 5:24 PM CST
Civil Twilight 6:46 AM CST 5:53 PM CST
Nautical Twilight 6:13 AM CST 6:25 PM CST
Astronomical Twilight 5:41 AM CST 6:57 PM CST
Moon 11:33 PM CST (2/1) 9:47 AM CST (2/1)
Length of Visible Light 11h 07m
Length of Day
10h 09m
Waning Gibbous, 70% of the Moon is Illuminated
Feb 1
Waning Gibbous
Feb 3
Last Quarter
Feb 10
New
Feb 17
First Quarter
Feb 25
Full

Hourly Weather History & Observations

Time (CST) Temp. Windchill Dew Point Humidity Pressure Visibility Wind Dir Wind Speed Gust Speed Precip Events Conditions
12:15 AM 5.0 °F -13.6 °F -4.0 °F 66% 30.37 in 10.0 mi West 16.1 mph - N/A   Clear
12:35 AM 5.0 °F -13.6 °F -4.0 °F 66% 30.38 in 10.0 mi West 16.1 mph 21.9 mph N/A   Clear
12:55 AM 5.0 °F -11.6 °F -4.0 °F 66% 30.39 in 10.0 mi West 12.7 mph - N/A   Clear
1:15 AM 5.0 °F -13.0 °F -5.8 °F 61% 30.39 in 10.0 mi WNW 15.0 mph - N/A   Clear
1:35 AM 5.0 °F -13.0 °F -5.8 °F 61% 30.40 in 10.0 mi West 15.0 mph 20.7 mph N/A   Clear
1:55 AM 5.0 °F -11.6 °F -5.8 °F 61% 30.40 in 10.0 mi West 12.7 mph - N/A   Clear
2:15 AM 3.2 °F -13.1 °F -5.8 °F 66% 30.40 in 10.0 mi WNW 11.5 mph - N/A   Clear
2:35 AM 3.2 °F -11.3 °F -5.8 °F 66% 30.40 in 10.0 mi WNW 9.2 mph - N/A   Clear
2:55 AM 3.2 °F -11.3 °F -5.8 °F 66% 30.40 in 10.0 mi West 9.2 mph - N/A   Clear
3:15 AM 3.2 °F -11.3 °F -5.8 °F 66% 30.40 in 10.0 mi WNW 9.2 mph - N/A   Clear
3:35 AM 3.2 °F -11.3 °F -5.8 °F 66% 30.39 in 10.0 mi WNW 9.2 mph - N/A   Clear
3:55 AM 3.2 °F -11.3 °F -5.8 °F 66% 30.39 in 10.0 mi West 9.2 mph - N/A   Clear
4:15 AM 3.2 °F -9.1 °F -5.8 °F 66% 30.40 in 10.0 mi West 6.9 mph - N/A   Clear
4:35 AM 3.2 °F -13.1 °F -5.8 °F 66% 30.40 in 10.0 mi West 11.5 mph - N/A   Clear
4:55 AM 3.2 °F -12.2 °F -5.8 °F 66% 30.40 in 10.0 mi WNW 10.4 mph - N/A   Clear
5:15 AM 1.4 °F -12.5 °F -7.6 °F 66% 30.40 in 10.0 mi WNW 8.1 mph - N/A   Clear
5:35 AM 1.4 °F -11.3 °F -7.6 °F 66% 30.41 in 10.0 mi West 6.9 mph - N/A   Clear
6:15 AM 1.4 °F -13.5 °F -7.6 °F 66% 30.41 in 10.0 mi WNW 9.2 mph - N/A   Clear
6:35 AM 1.4 °F -11.3 °F -7.6 °F 66% 30.41 in 10.0 mi West 6.9 mph - N/A   Clear
6:55 AM 1.4 °F -9.9 °F -7.6 °F 66% 30.41 in 10.0 mi WNW 5.8 mph - N/A   Clear
7:15 AM 1.4 °F -12.5 °F -7.6 °F 66% 30.42 in 10.0 mi West 8.1 mph - N/A   Clear
7:35 AM 1.4 °F -9.9 °F -7.6 °F 66% 30.42 in 10.0 mi WNW 5.8 mph - N/A   Clear
7:55 AM 1.4 °F -13.5 °F -7.6 °F 66% 30.43 in 10.0 mi WNW 9.2 mph - N/A   Clear
8:15 AM 1.4 °F -12.5 °F -7.6 °F 66% 30.44 in 10.0 mi WNW 8.1 mph - N/A   Clear
8:35 AM 3.2 °F -7.8 °F -7.6 °F 61% 30.44 in 10.0 mi WNW 5.8 mph - N/A   Clear
8:55 AM 3.2 °F -9.1 °F -7.6 °F 61% 30.43 in 10.0 mi NW 6.9 mph - N/A   Clear
9:15 AM 3.2 °F -6.2 °F -5.8 °F 66% 30.44 in 10.0 mi West 4.6 mph - N/A   Clear
9:35 AM 5.0 °F - -5.8 °F 61% 30.43 in 10.0 mi Calm Calm - N/A   Clear
9:55 AM 6.8 °F - -5.8 °F 56% 30.43 in 10.0 mi Calm Calm - N/A   Clear
10:15 AM 6.8 °F -3.5 °F -4.0 °F 61% 30.43 in 10.0 mi West 5.8 mph - N/A   Clear
10:35 AM 8.6 °F 0.1 °F -2.2 °F 62% 30.44 in 10.0 mi West 4.6 mph - N/A   Clear
10:55 AM 8.6 °F - -2.2 °F 62% 30.44 in 10.0 mi Calm Calm - N/A   Clear
11:15 AM 8.6 °F - -2.2 °F 62% 30.43 in 10.0 mi Calm Calm - N/A   Clear
11:35 AM 10.4 °F -0.4 °F -0.4 °F 62% 30.42 in 10.0 mi SSW 6.9 mph - N/A   Clear
11:55 AM 10.4 °F 0.8 °F -0.4 °F 62% 30.41 in 10.0 mi SW 5.8 mph 9.2 mph N/A   Clear
12:15 PM 12.2 °F 4.3 °F -0.4 °F 57% 30.38 in 10.0 mi SSW 4.6 mph - N/A   Clear
12:35 PM 12.2 °F 0.7 °F -0.4 °F 57% 30.38 in 10.0 mi SW 8.1 mph - N/A   Mostly Cloudy
12:55 PM 14.0 °F -0.2 °F 1.4 °F 57% 30.38 in 10.0 mi WSW 12.7 mph - N/A   Overcast
1:15 PM 14.0 °F 2.0 °F 1.4 °F 57% 30.37 in 10.0 mi West 9.2 mph - N/A   Overcast
1:35 PM 15.8 °F 5.1 °F 1.4 °F 53% 30.35 in 10.0 mi SW 8.1 mph - N/A   Overcast
1:55 PM 15.8 °F 6.1 °F 1.4 °F 53% 30.35 in 10.0 mi SW 6.9 mph - N/A   Overcast
2:15 PM 15.8 °F 6.1 °F 1.4 °F 53% 30.33 in 10.0 mi WSW 6.9 mph - N/A   Overcast
2:35 PM 15.8 °F 8.6 °F 1.4 °F 53% 30.32 in 10.0 mi SW 4.6 mph - N/A   Overcast
3:15 PM 17.6 °F 7.3 °F 3.2 °F 53% 30.32 in 10.0 mi SW 8.1 mph - N/A   Overcast
3:35 PM 17.6 °F 7.3 °F 3.2 °F 53% 30.31 in 10.0 mi SW 8.1 mph - N/A   Overcast
3:55 PM 19.4 °F 9.5 °F 5.0 °F 54% 30.30 in 10.0 mi SW 8.1 mph - N/A   Overcast
4:15 PM 19.4 °F 7.9 °F 6.8 °F 58% 30.29 in 10.0 mi SSW 10.4 mph - N/A   Overcast
4:35 PM 19.4 °F 9.5 °F 6.8 °F 58% 30.28 in 10.0 mi SSW 8.1 mph - N/A   Overcast
4:55 PM 19.4 °F 10.4 °F 6.8 °F 58% 30.27 in 10.0 mi SSW 6.9 mph - N/A   Mostly Cloudy
5:15 PM 19.4 °F 8.6 °F 6.8 °F 58% 30.26 in 10.0 mi SSW 9.2 mph - N/A   Mostly Cloudy
5:35 PM 19.4 °F 12.8 °F 6.8 °F 58% 30.26 in 10.0 mi SSW 4.6 mph - N/A   Overcast
5:55 PM 19.4 °F 11.5 °F 6.8 °F 58% 30.25 in 10.0 mi South 5.8 mph - N/A   Overcast
6:15 PM 19.4 °F - 6.8 °F 58% 30.24 in 10.0 mi Calm Calm - N/A   Scattered Clouds
6:35 PM 21.2 °F 14.9 °F 8.6 °F 58% 30.23 in 10.0 mi South 4.6 mph - N/A   Scattered Clouds
6:55 PM 21.2 °F 13.6 °F 8.6 °F 58% 30.22 in 10.0 mi South 5.8 mph - N/A   Mostly Cloudy
7:15 PM 21.2 °F 10.9 °F 8.6 °F 58% 30.21 in 10.0 mi South 9.2 mph - N/A   Overcast
7:35 PM 21.2 °F 10.9 °F 10.4 °F 63% 30.20 in 10.0 mi South 9.2 mph - N/A   Overcast
7:55 PM 23.0 °F 17.0 °F 12.2 °F 63% 30.20 in 10.0 mi South 4.6 mph 9.2 mph N/A   Mostly Cloudy
8:15 PM 23.0 °F 11.7 °F 14.0 °F 68% 30.19 in 10.0 mi South 11.5 mph - N/A   Mostly Cloudy
8:35 PM 21.2 °F 7.8 °F 14.0 °F 74% 30.18 in 10.0 mi South 15.0 mph 18.4 mph N/A   Overcast
8:55 PM 21.2 °F 9.5 °F 15.8 °F 80% 30.17 in 10.0 mi South 11.5 mph - N/A   Overcast
9:15 PM 23.0 °F 11.7 °F 15.8 °F 74% 30.17 in 10.0 mi SSW 11.5 mph - N/A   Overcast
9:35 PM 23.0 °F 13.1 °F 15.8 °F 74% 30.15 in 10.0 mi SSW 9.2 mph - N/A   Overcast
9:55 PM 24.8 °F 13.4 °F 15.8 °F 69% 30.16 in 10.0 mi SSW 12.7 mph 21.9 mph N/A   Overcast
10:15 PM 24.8 °F 14.0 °F 15.8 °F 69% 30.17 in 10.0 mi SSW 11.5 mph - N/A   Overcast
10:35 PM 24.8 °F 14.6 °F 15.8 °F 69% 30.16 in 10.0 mi SW 10.4 mph - N/A   Overcast
10:55 PM 24.8 °F 15.3 °F 15.8 °F 69% 30.16 in 10.0 mi SSW 9.2 mph - N/A   Overcast
11:15 PM 24.8 °F 15.3 °F 15.8 °F 69% 30.16 in 10.0 mi SW 9.2 mph - N/A   Overcast
11:35 PM 24.8 °F 16.9 °F 15.8 °F 69% 30.16 in 10.0 mi SSW 6.9 mph - N/A   Overcast
11:55 PM 24.8 °F 20.5 °F 15.8 °F 69% 30.14 in 10.0 mi SSW 3.5 mph - N/A   Overcast